createdAt,value
2018-11-03T02:01:39.062Z,19.40
2018-11-03T02:04:19.982Z,18.90
2018-11-03T02:07:01.473Z,21.67
2018-11-03T02:09:42.812Z,21.17
2018-11-03T02:12:20.703Z,17.77
2018-11-03T02:15:01.594Z,20.87
2018-11-03T02:17:40.711Z,20.07
2018-11-03T02:20:18.678Z,20.57
2018-11-03T02:22:57.474Z,19.98
2018-11-03T02:25:30.929Z,19.13
2018-11-03T02:28:04.521Z,17.17
2018-11-03T02:30:37.968Z,17.80
2018-11-03T02:33:11.065Z,18.57
2018-11-03T02:35:43.675Z,20.30
2018-11-03T02:38:20.158Z,20.03
2018-11-03T02:40:58.002Z,17.80
2018-11-03T02:43:33.907Z,18.80
2018-11-03T02:46:07.181Z,20.17
2018-11-03T02:48:39.991Z,19.77
2018-11-03T02:51:13.179Z,18.60
2018-11-03T02:53:46.899Z,20.80
2018-11-03T02:56:21.074Z,24.27
2018-11-03T02:58:54.024Z,23.53
2018-11-03T03:01:30.078Z,31.70
2018-11-03T03:04:03.163Z,20.70
2018-11-03T03:06:37.417Z,20.83
2018-11-03T03:09:10.595Z,24.02
2018-11-03T03:11:44.391Z,25.30
2018-11-03T03:14:17.805Z,22.40
2018-11-03T03:18:20.230Z,19.53
2018-11-03T03:20:52.752Z,20.93
2018-11-03T03:23:25.491Z,20.87
2018-11-03T03:25:58.090Z,22.50
2018-11-03T03:28:30.514Z,17.23
2018-11-03T03:31:04.939Z,19.73
2018-11-03T03:33:38.198Z,21.13
2018-11-03T03:36:10.536Z,18.10
2018-11-03T03:38:43.164Z,19.20
2018-11-03T03:41:15.661Z,20.07
2018-11-03T03:43:48.262Z,22.73
2018-11-03T03:46:21.076Z,18.53
2018-11-03T03:48:53.713Z,19.07
2018-11-03T03:51:26.923Z,18.93
2018-11-03T03:53:59.559Z,35.30
2018-11-03T03:56:32.470Z,50.53
2018-11-03T03:59:05.692Z,85.63
2018-11-03T04:01:38.553Z,82.43
2018-11-03T04:04:11.171Z,52.37
2018-11-03T04:06:44.434Z,54.53
2018-11-03T04:09:16.947Z,29.93
2018-11-03T05:26:43.272Z,34.75
2018-11-03T05:50:22.561Z,17.67
2018-11-03T05:52:58.289Z,24.50
2018-11-03T05:55:37.622Z,34.77
2018-11-03T05:58:11.549Z,59.67
2018-11-03T06:01:09.661Z,68.00
2018-11-03T06:03:57.357Z,76.70
2018-11-03T06:06:38.931Z,42.07
2018-11-03T06:09:16.789Z,34.53
2018-11-03T06:11:57.674Z,26.63
2018-11-03T06:14:33.257Z,22.33
2018-11-03T06:17:07.500Z,20.87
2018-11-03T06:19:43.653Z,22.70
2018-11-03T06:22:31.504Z,26.37
2018-11-03T06:25:07.067Z,50.87
2018-11-03T06:27:46.741Z,75.47
2018-11-03T06:30:26.991Z,53.60
2018-11-03T06:35:56.108Z,38.83
2018-11-03T06:38:51.902Z,33.13
2018-11-03T06:44:46.355Z,142.77
2018-11-03T06:47:45.762Z,118.37
2018-11-03T06:50:22.477Z,56.13
2018-11-03T06:52:55.612Z,41.33
2018-11-03T06:55:28.089Z,34.08
2018-11-03T06:58:01.132Z,28.60
2018-11-03T07:00:37.636Z,37.93
2018-11-03T07:03:15.151Z,65.83
2018-11-03T07:05:47.858Z,76.27
2018-11-03T07:08:20.477Z,60.28
2018-11-03T07:10:53.290Z,47.37
2018-11-03T07:13:25.816Z,46.53
2018-11-03T07:15:58.545Z,32.03
2018-11-03T07:18:31.524Z,35.00
2018-11-03T07:21:03.863Z,27.53
2018-11-03T07:23:36.216Z,27.37
2018-11-03T07:26:09.515Z,22.83
2018-11-03T07:28:41.914Z,24.13
2018-11-03T07:31:14.300Z,36.10
2018-11-03T07:33:46.730Z,28.17
2018-11-03T07:36:20.497Z,27.67
2018-11-03T07:38:53.044Z,25.57
2018-11-03T07:41:25.399Z,30.60
2018-11-03T07:43:57.902Z,107.93
2018-11-03T07:46:30.322Z,126.07
2018-11-03T07:49:02.792Z,310.57
2018-11-03T07:51:35.104Z,461.40
2018-11-03T07:54:07.509Z,315.30
2018-11-03T07:56:40.088Z,269.37
2018-11-03T07:59:12.594Z,156.50
2018-11-03T08:01:45.791Z,145.50
2018-11-03T08:04:20.720Z,124.55
2018-11-03T08:06:53.059Z,95.97
2018-11-03T08:09:25.609Z,37.37
2018-11-03T08:11:57.865Z,32.33
2018-11-03T08:14:30.620Z,35.03
2018-11-03T08:17:03.035Z,30.17
2018-11-03T08:19:35.337Z,26.77
2018-11-03T08:22:08.932Z,25.40
2018-11-03T08:24:43.319Z,28.83
2018-11-03T08:27:15.554Z,56.33
2018-11-03T08:29:48.601Z,70.97
2018-11-03T08:32:20.868Z,60.40
2018-11-03T08:34:53.136Z,75.93
2018-11-03T08:37:25.711Z,94.70
2018-11-03T08:39:58.111Z,133.95
2018-11-03T08:42:30.460Z,192.30
2018-11-03T08:45:03.600Z,222.47
2018-11-03T08:47:36.189Z,155.53
2018-11-03T08:50:14.129Z,79.20
2018-11-03T08:52:46.393Z,58.17
2018-11-03T08:55:18.812Z,36.67
2018-11-03T08:57:50.964Z,36.83
2018-11-03T09:00:23.473Z,104.23
2018-11-03T09:02:55.836Z,67.80
2018-11-03T09:05:29.364Z,58.33
2018-11-03T09:08:01.531Z,68.30
2018-11-03T09:10:34.013Z,74.67
2018-11-03T09:13:07.097Z,65.07
2018-11-03T09:15:39.779Z,45.13
2018-11-03T09:18:12.054Z,29.73
2018-11-03T09:20:44.505Z,25.23
2018-11-03T09:23:16.670Z,25.87
2018-11-03T09:25:48.957Z,31.70
2018-11-03T09:28:21.211Z,25.43
2018-11-03T09:30:53.987Z,23.23
2018-11-03T09:33:26.191Z,22.73
2018-11-03T09:35:59.775Z,25.10
2018-11-03T09:38:32.966Z,21.90
2018-11-03T09:41:06.583Z,25.07
2018-11-03T09:43:39.119Z,23.87
2018-11-03T09:46:12.050Z,24.03
2018-11-03T09:48:44.781Z,23.83
2018-11-03T09:51:17.073Z,23.10
2018-11-03T09:53:50.185Z,25.33
2018-11-03T09:56:23.129Z,24.90
2018-11-03T09:58:55.715Z,24.37
2018-11-03T10:01:28.290Z,25.67
2018-11-03T10:04:01.060Z,25.07
2018-11-03T10:06:34.479Z,25.83
2018-11-03T10:09:07.884Z,23.57
2018-11-03T10:11:40.046Z,24.37
2018-11-03T10:14:13.351Z,23.07
2018-11-03T10:16:45.775Z,25.13
2018-11-03T10:19:18.256Z,28.03
2018-11-03T10:21:50.736Z,24.50
2018-11-03T10:24:23.167Z,27.13
2018-11-03T10:26:56.948Z,24.57
2018-11-03T10:29:29.426Z,28.70
2018-11-03T10:32:01.855Z,34.23
2018-11-03T10:34:34.060Z,27.10
2018-11-03T10:37:06.395Z,27.87
2018-11-03T10:39:39.905Z,30.17
2018-11-03T10:42:12.672Z,30.73
2018-11-03T10:44:44.939Z,26.40
2018-11-03T10:47:17.310Z,31.55
2018-11-03T10:49:57.440Z,35.67
2018-11-03T10:52:31.190Z,122.63
2018-11-03T10:55:03.885Z,224.27
2018-11-03T10:57:38.147Z,329.25
2018-11-03T11:00:19.517Z,265.57
2018-11-03T11:02:56.403Z,164.63
2018-11-03T11:05:33.689Z,94.47
2018-11-03T11:08:11.015Z,42.47
2018-11-03T11:10:48.063Z,37.42
2018-11-03T11:13:23.749Z,25.17
2018-11-03T11:15:57.942Z,25.30
2018-11-03T11:18:30.830Z,30.17
2018-11-03T11:21:04.042Z,33.17
2018-11-03T11:23:36.463Z,30.00
2018-11-03T11:26:09.051Z,27.13
2018-11-03T11:28:41.554Z,27.83
2018-11-03T11:31:14.448Z,27.93
2018-11-03T11:33:47.171Z,29.23
2018-11-03T11:36:19.507Z,30.40
2018-11-03T11:38:52.376Z,38.73
2018-11-03T11:41:25.316Z,38.87
2018-11-03T11:43:57.883Z,94.47
2018-11-03T11:46:30.433Z,44.23
2018-11-03T11:49:02.856Z,36.80
2018-11-03T11:51:36.446Z,30.03
2018-11-03T11:54:09.025Z,33.93
2018-11-03T11:56:41.330Z,38.75
2018-11-03T11:59:16.240Z,54.50
2018-11-03T12:01:49.012Z,65.33
2018-11-03T12:04:21.425Z,38.03
2018-11-03T12:06:54.672Z,30.00
2018-11-03T12:09:32.653Z,21.60
2018-11-03T12:12:09.999Z,27.23
2018-11-03T12:17:51.998Z,27.53
2018-11-03T12:20:34.769Z,31.70
2018-11-03T12:23:19.338Z,41.63
2018-11-03T12:26:00.433Z,31.03
2018-11-03T12:28:38.446Z,37.43
2018-11-03T12:31:17.895Z,35.50
2018-11-03T12:33:54.460Z,37.87
2018-11-03T12:36:31.202Z,33.97
2018-11-03T12:39:08.220Z,35.27
2018-11-03T12:41:43.198Z,39.67
2018-11-03T12:44:17.813Z,36.47
2018-11-03T12:46:54.505Z,34.67
2018-11-03T12:49:28.140Z,31.17
2018-11-03T12:52:01.880Z,34.70
2018-11-03T12:54:34.772Z,34.13
2018-11-03T12:57:07.714Z,42.77
2018-11-03T12:59:40.293Z,36.23
2018-11-03T13:02:13.248Z,32.67
2018-11-03T13:04:46.438Z,30.80
2018-11-03T13:07:19.822Z,36.80
2018-11-03T13:09:54.238Z,29.37
2018-11-03T13:12:27.308Z,28.00
2018-11-03T13:14:59.733Z,35.00
2018-11-03T13:17:32.292Z,30.20
2018-11-03T13:20:04.746Z,22.93
2018-11-03T13:22:38.636Z,30.23
2018-11-03T13:25:13.091Z,30.80
2018-11-03T13:27:52.479Z,27.43
2018-11-03T13:30:29.720Z,27.53
2018-11-03T13:33:02.259Z,30.13
2018-11-03T13:35:34.984Z,26.37
2018-11-03T13:38:07.949Z,30.13
2018-11-03T13:40:47.435Z,33.80
2018-11-03T13:43:22.510Z,29.33
2018-11-03T13:45:58.794Z,37.87
2018-11-03T13:51:20.817Z,41.17
2018-11-03T13:53:55.134Z,30.87
2018-11-03T13:56:27.552Z,31.17
2018-11-03T13:58:59.923Z,32.57
2018-11-03T14:04:47.942Z,30.03
2018-11-03T14:07:20.835Z,28.67
2018-11-03T14:09:56.603Z,26.47
2018-11-03T14:12:29.550Z,24.83
2018-11-03T14:15:02.194Z,21.07
2018-11-03T14:17:35.244Z,19.93
2018-11-03T14:20:08.943Z,25.20
2018-11-03T14:22:41.751Z,22.73
2018-11-03T14:25:15.560Z,23.27
2018-11-03T14:27:50.058Z,26.68
2018-11-03T14:30:22.764Z,33.50
2018-11-03T14:32:55.437Z,25.00
2018-11-03T14:35:27.966Z,23.33
2018-11-03T14:38:00.801Z,21.40
2018-11-03T14:45:00.932Z,29.93
2018-11-03T16:06:42.299Z,19.60
2018-11-03T16:39:36.644Z,22.43
2018-11-03T16:56:09.656Z,15.63
2018-11-03T18:40:26.203Z,10.93
2018-11-03T18:59:29.750Z,11.70
2018-11-03T19:02:14.271Z,9.17
2018-11-03T19:05:01.228Z,8.83
2018-11-03T19:10:34.764Z,12.40
2018-11-03T19:13:30.425Z,12.85
2018-11-03T19:16:22.128Z,11.17
2018-11-03T19:19:19.705Z,11.70
2018-11-03T20:00:50.179Z,9.87
2018-11-03T20:07:17.577Z,13.58
2018-11-03T20:39:54.129Z,10.47
2018-11-03T22:29:28.343Z,14.27
2018-11-03T23:49:50.445Z,13.37
